sensor_id;sensor_type;location;lat;lon;timestamp;temperature;humidity
69533;DHT22;56729;52.036;5.332;2024-01-30T00:00:47;6.00;99.90
69533;DHT22;56729;52.036;5.332;2024-01-30T00:01:50;6.00;99.90
69533;DHT22;56729;52.036;5.332;2024-01-30T00:02:52;6.00;99.90
69533;DHT22;56729;52.036;5.332;2024-01-30T00:03:54;6.00;99.90
69533;DHT22;56729;52.036;5.332;2024-01-30T00:04:56;6.00;99.90
69533;DHT22;56729;52.036;5.332;2024-01-30T00:05:58;6.00;99.90
69533;DHT22;56729;52.036;5.332;2024-01-30T00:07:00;6.00;99.90
69533;DHT22;56729;52.036;5.332;2024-01-30T00:08:03;6.00;99.90
69533;DHT22;56729;52.036;5.332;2024-01-30T00:09:05;6.00;99.90
69533;DHT22;56729;52.036;5.332;2024-01-30T00:10:07;6.00;99.90
69533;DHT22;56729;52.036;5.332;2024-01-30T00:11:09;6.00;99.90
69533;DHT22;56729;52.036;5.332;2024-01-30T00:12:11;6.00;99.90
69533;DHT22;56729;52.036;5.332;2024-01-30T00:13:13;5.90;99.90
69533;DHT22;56729;52.036;5.332;2024-01-30T00:14:18;5.90;99.90
69533;DHT22;56729;52.036;5.332;2024-01-30T00:15:20;5.90;99.90
69533;DHT22;56729;52.036;5.332;2024-01-30T00:16:23;5.90;99.90
69533;DHT22;56729;52.036;5.332;2024-01-30T00:17:26;5.90;99.90
69533;DHT22;56729;52.036;5.332;2024-01-30T00:18:28;5.90;99.90
69533;DHT22;56729;52.036;5.332;2024-01-30T00:19:30;5.90;99.90
69533;DHT22;56729;52.036;5.332;2024-01-30T00:20:32;5.90;99.90
69533;DHT22;56729;52.036;5.332;2024-01-30T00:21:34;5.90;99.90
69533;DHT22;56729;52.036;5.332;2024-01-30T00:22:36;5.90;99.90
69533;DHT22;56729;52.036;5.332;2024-01-30T00:23:38;5.90;99.90
69533;DHT22;56729;52.036;5.332;2024-01-30T00:24:40;5.90;99.90
69533;DHT22;56729;52.036;5.332;2024-01-30T00:25:42;5.90;99.90
69533;DHT22;56729;52.036;5.332;2024-01-30T00:26:45;5.90;99.90
69533;DHT22;56729;52.036;5.332;2024-01-30T00:27:47;5.90;99.90
69533;DHT22;56729;52.036;5.332;2024-01-30T00:28:49;5.90;99.90
69533;DHT22;56729;52.036;5.332;2024-01-30T00:29:51;5.90;99.90
69533;DHT22;56729;52.036;5.332;2024-01-30T00:30:53;5.90;99.90
69533;DHT22;56729;52.036;5.332;2024-01-30T00:31:55;5.80;99.90
69533;DHT22;56729;52.036;5.332;2024-01-30T00:32:57;5.80;99.90
69533;DHT22;56729;52.036;5.332;2024-01-30T00:33:59;5.80;99.90
69533;DHT22;56729;52.036;5.332;2024-01-30T00:35:01;5.80;99.90
69533;DHT22;56729;52.036;5.332;2024-01-30T00:36:03;5.80;99.90
69533;DHT22;56729;52.036;5.332;2024-01-30T00:37:06;5.80;99.90
69533;DHT22;56729;52.036;5.332;2024-01-30T00:38:08;5.80;99.90
69533;DHT22;56729;52.036;5.332;2024-01-30T00:39:10;5.80;99.90
69533;DHT22;56729;52.036;5.332;2024-01-30T00:40:13;5.80;99.90
69533;DHT22;56729;52.036;5.332;2024-01-30T00:41:18;5.80;99.90
69533;DHT22;56729;52.036;5.332;2024-01-30T00:42:22;5.80;99.90
69533;DHT22;56729;52.036;5.332;2024-01-30T00:43:25;5.70;99.90
69533;DHT22;56729;52.036;5.332;2024-01-30T00:44:27;5.70;99.90
69533;DHT22;56729;52.036;5.332;2024-01-30T00:45:29;5.70;99.90
69533;DHT22;56729;52.036;5.332;2024-01-30T00:46:31;5.70;99.90
69533;DHT22;56729;52.036;5.332;2024-01-30T00:47:33;5.70;99.90
69533;DHT22;56729;52.036;5.332;2024-01-30T00:48:38;5.70;99.90
69533;DHT22;56729;52.036;5.332;2024-01-30T00:49:40;5.70;99.90
69533;DHT22;56729;52.036;5.332;2024-01-30T00:50:42;5.70;99.90
69533;DHT22;56729;52.036;5.332;2024-01-30T00:51:44;5.70;99.90
69533;DHT22;56729;52.036;5.332;2024-01-30T00:52:46;5.70;99.90
69533;DHT22;56729;52.036;5.332;2024-01-30T00:53:48;5.70;99.90
69533;DHT22;56729;52.036;5.332;2024-01-30T00:54:50;5.70;99.90
69533;DHT22;56729;52.036;5.332;2024-01-30T00:55:52;5.70;99.90
69533;DHT22;56729;52.036;5.332;2024-01-30T00:56:54;5.70;99.90
69533;DHT22;56729;52.036;5.332;2024-01-30T00:57:56;5.70;99.90
69533;DHT22;56729;52.036;5.332;2024-01-30T00:59:00;5.70;99.90
69533;DHT22;56729;52.036;5.332;2024-01-30T01:00:02;5.70;99.90
69533;DHT22;56729;52.036;5.332;2024-01-30T01:01:05;5.70;99.90
69533;DHT22;56729;52.036;5.332;2024-01-30T01:02:09;5.70;99.90
69533;DHT22;56729;52.036;5.332;2024-01-30T01:03:11;5.60;99.90
69533;DHT22;56729;52.036;5.332;2024-01-30T01:04:13;5.60;99.90
69533;DHT22;56729;52.036;5.332;2024-01-30T01:05:15;5.60;99.90
69533;DHT22;56729;52.036;5.332;2024-01-30T01:06:17;5.60;99.90
69533;DHT22;56729;52.036;5.332;2024-01-30T01:07:19;5.60;99.90
69533;DHT22;56729;52.036;5.332;2024-01-30T01:08:21;5.60;99.90
69533;DHT22;56729;52.036;5.332;2024-01-30T01:09:24;5.60;99.90
69533;DHT22;56729;52.036;5.332;2024-01-30T01:10:26;5.60;99.90
69533;DHT22;56729;52.036;5.332;2024-01-30T01:11:29;5.60;99.90
69533;DHT22;56729;52.036;5.332;2024-01-30T01:12:31;5.60;99.90
69533;DHT22;56729;52.036;5.332;2024-01-30T01:13:33;5.50;99.90
69533;DHT22;56729;52.036;5.332;2024-01-30T01:14:34;5.50;99.90
69533;DHT22;56729;52.036;5.332;2024-01-30T01:15:37;5.50;99.90
69533;DHT22;56729;52.036;5.332;2024-01-30T01:16:39;5.50;99.90
69533;DHT22;56729;52.036;5.332;2024-01-30T01:17:41;5.50;99.90
69533;DHT22;56729;52.036;5.332;2024-01-30T01:18:43;5.50;99.90
69533;DHT22;56729;52.036;5.332;2024-01-30T01:19:45;5.50;99.90
69533;DHT22;56729;52.036;5.332;2024-01-30T01:20:47;5.50;99.90
69533;DHT22;56729;52.036;5.332;2024-01-30T01:21:49;5.50;99.90
69533;DHT22;56729;52.036;5.332;2024-01-30T01:22:51;5.50;99.90
69533;DHT22;56729;52.036;5.332;2024-01-30T01:23:54;5.50;99.90
69533;DHT22;56729;52.036;5.332;2024-01-30T01:24:56;5.50;99.90
69533;DHT22;56729;52.036;5.332;2024-01-30T01:25:58;5.50;99.90
69533;DHT22;56729;52.036;5.332;2024-01-30T01:27:03;5.50;99.90
69533;DHT22;56729;52.036;5.332;2024-01-30T01:28:05;5.50;99.90
69533;DHT22;56729;52.036;5.332;2024-01-30T01:29:07;5.50;99.90
69533;DHT22;56729;52.036;5.332;2024-01-30T01:30:13;5.50;99.90
69533;DHT22;56729;52.036;5.332;2024-01-30T01:31:20;5.50;99.90
69533;DHT22;56729;52.036;5.332;2024-01-30T01:32:26;5.50;99.90
69533;DHT22;56729;52.036;5.332;2024-01-30T01:33:28;5.50;99.90
69533;DHT22;56729;52.036;5.332;2024-01-30T01:34:31;5.50;99.90
69533;DHT22;56729;52.036;5.332;2024-01-30T01:35:33;5.50;99.90
69533;DHT22;56729;52.036;5.332;2024-01-30T01:36:35;5.50;99.90
69533;DHT22;56729;52.036;5.332;2024-01-30T01:37:37;5.50;99.90
69533;DHT22;56729;52.036;5.332;2024-01-30T01:38:40;5.50;99.90
69533;DHT22;56729;52.036;5.332;2024-01-30T01:39:41;5.50;99.90
69533;DHT22;56729;52.036;5.332;2024-01-30T01:40:44;5.50;99.90
69533;DHT22;56729;52.036;5.332;2024-01-30T01:41:46;5.50;99.90
69533;DHT22;56729;52.036;5.332;2024-01-30T01:42:49;5.50;99.90
69533;DHT22;56729;52.036;5.332;2024-01-30T01:43:51;5.50;99.90
69533;DHT22;56729;52.036;5.332;2024-01-30T01:44:53;5.50;99.90
69533;DHT22;56729;52.036;5.332;2024-01-30T01:45:55;5.50;99.90
69533;DHT22;56729;52.036;5.332;2024-01-30T01:46:57;5.50;99.90
69533;DHT22;56729;52.036;5.332;2024-01-30T01:47:59;5.50;99.90
69533;DHT22;56729;52.036;5.332;2024-01-30T01:49:02;5.50;99.90
69533;DHT22;56729;52.036;5.332;2024-01-30T01:50:05;5.40;99.90
69533;DHT22;56729;52.036;5.332;2024-01-30T01:51:09;5.40;99.90
69533;DHT22;56729;52.036;5.332;2024-01-30T01:52:11;5.40;99.90
69533;DHT22;56729;52.036;5.332;2024-01-30T01:53:13;5.40;99.90
69533;DHT22;56729;52.036;5.332;2024-01-30T01:54:17;5.40;99.90
69533;DHT22;56729;52.036;5.332;2024-01-30T01:55:21;5.50;99.90
69533;DHT22;56729;52.036;5.332;2024-01-30T01:56:24;5.50;99.90
69533;DHT22;56729;52.036;5.332;2024-01-30T01:57:28;5.50;99.90
69533;DHT22;56729;52.036;5.332;2024-01-30T01:58:30;5.50;99.90
69533;DHT22;56729;52.036;5.332;2024-01-30T01:59:32;5.50;99.90
69533;DHT22;56729;52.036;5.332;2024-01-30T02:00:36;5.50;99.90
69533;DHT22;56729;52.036;5.332;2024-01-30T02:01:41;5.50;99.90
69533;DHT22;56729;52.036;5.332;2024-01-30T02:02:45;5.50;99.90
69533;DHT22;56729;52.036;5.332;2024-01-30T02:03:47;5.50;99.90
69533;DHT22;56729;52.036;5.332;2024-01-30T02:04:49;5.50;99.90
69533;DHT22;56729;52.036;5.332;2024-01-30T02:05:52;5.50;99.90
69533;DHT22;56729;52.036;5.332;2024-01-30T02:06:54;5.50;99.90
69533;DHT22;56729;52.036;5.332;2024-01-30T02:07:56;5.50;99.90
69533;DHT22;56729;52.036;5.332;2024-01-30T02:08:58;5.50;99.90
69533;DHT22;56729;52.036;5.332;2024-01-30T02:10:00;5.50;99.90
69533;DHT22;56729;52.036;5.332;2024-01-30T02:11:02;5.50;99.90
69533;DHT22;56729;52.036;5.332;2024-01-30T02:12:05;5.50;99.90
69533;DHT22;56729;52.036;5.332;2024-01-30T02:13:07;5.50;99.90
69533;DHT22;56729;52.036;5.332;2024-01-30T02:14:09;5.50;99.90
69533;DHT22;56729;52.036;5.332;2024-01-30T02:15:13;5.50;99.90
69533;DHT22;56729;52.036;5.332;2024-01-30T02:16:16;5.50;99.90
69533;DHT22;56729;52.036;5.332;2024-01-30T02:17:21;5.50;99.90
69533;DHT22;56729;52.036;5.332;2024-01-30T02:18:25;5.50;99.90
69533;DHT22;56729;52.036;5.332;2024-01-30T02:19:27;5.50;99.90
69533;DHT22;56729;52.036;5.332;2024-01-30T02:20:31;5.50;99.90
69533;DHT22;56729;52.036;5.332;2024-01-30T02:21:36;5.50;99.90
69533;DHT22;56729;52.036;5.332;2024-01-30T02:22:38;5.50;99.90
69533;DHT22;56729;52.036;5.332;2024-01-30T02:23:43;5.50;99.90
69533;DHT22;56729;52.036;5.332;2024-01-30T02:24:46;5.50;99.90
69533;DHT22;56729;52.036;5.332;2024-01-30T02:25:48;5.50;99.90
69533;DHT22;56729;52.036;5.332;2024-01-30T02:26:50;5.50;99.90
69533;DHT22;56729;52.036;5.332;2024-01-30T02:27:52;5.50;99.90
69533;DHT22;56729;52.036;5.332;2024-01-30T02:28:54;5.50;99.90
69533;DHT22;56729;52.036;5.332;2024-01-30T02:29:56;5.50;99.90
69533;DHT22;56729;52.036;5.332;2024-01-30T02:30:58;5.50;99.90
69533;DHT22;56729;52.036;5.332;2024-01-30T02:32:00;5.50;99.90
69533;DHT22;56729;52.036;5.332;2024-01-30T02:33:02;5.50;99.90
69533;DHT22;56729;52.036;5.332;2024-01-30T02:34:04;5.50;99.90
69533;DHT22;56729;52.036;5.332;2024-01-30T02:35:06;5.50;99.90
69533;DHT22;56729;52.036;5.332;2024-01-30T02:36:08;5.50;99.90
69533;DHT22;56729;52.036;5.332;2024-01-30T02:37:10;5.50;99.90
69533;DHT22;56729;52.036;5.332;2024-01-30T02:38:12;5.60;99.90
69533;DHT22;56729;52.036;5.332;2024-01-30T02:39:14;5.60;99.90
69533;DHT22;56729;52.036;5.332;2024-01-30T02:40:16;5.60;99.90
69533;DHT22;56729;52.036;5.332;2024-01-30T02:41:18;5.60;99.90
69533;DHT22;56729;52.036;5.332;2024-01-30T02:42:20;5.60;99.90
69533;DHT22;56729;52.036;5.332;2024-01-30T02:43:22;5.60;99.90
69533;DHT22;56729;52.036;5.332;2024-01-30T02:44:24;5.60;99.90
69533;DHT22;56729;52.036;5.332;2024-01-30T02:45:26;5.60;99.90
69533;DHT22;56729;52.036;5.332;2024-01-30T02:46:28;5.60;99.90
69533;DHT22;56729;52.036;5.332;2024-01-30T02:47:30;5.70;99.90
69533;DHT22;56729;52.036;5.332;2024-01-30T02:48:32;5.70;99.90
69533;DHT22;56729;52.036;5.332;2024-01-30T02:49:34;5.70;99.90
69533;DHT22;56729;52.036;5.332;2024-01-30T02:50:37;5.70;99.90
69533;DHT22;56729;52.036;5.332;2024-01-30T02:51:38;5.70;99.90
69533;DHT22;56729;52.036;5.332;2024-01-30T02:52:40;5.60;99.90
69533;DHT22;56729;52.036;5.332;2024-01-30T02:53:42;5.60;99.90
69533;DHT22;56729;52.036;5.332;2024-01-30T02:54:44;5.60;99.90
69533;DHT22;56729;52.036;5.332;2024-01-30T02:55:46;5.60;99.90
69533;DHT22;56729;52.036;5.332;2024-01-30T02:56:48;5.60;99.90
69533;DHT22;56729;52.036;5.332;2024-01-30T02:57:50;5.60;99.90
69533;DHT22;56729;52.036;5.332;2024-01-30T02:58:54;5.70;99.90
69533;DHT22;56729;52.036;5.332;2024-01-30T02:59:56;5.70;99.90
69533;DHT22;56729;52.036;5.332;2024-01-30T03:00:58;5.70;99.90
69533;DHT22;56729;52.036;5.332;2024-01-30T03:02:00;5.70;99.90
69533;DHT22;56729;52.036;5.332;2024-01-30T03:03:03;5.70;99.90
69533;DHT22;56729;52.036;5.332;2024-01-30T03:04:05;5.70;99.90
69533;DHT22;56729;52.036;5.332;2024-01-30T03:05:07;5.70;99.90
69533;DHT22;56729;52.036;5.332;2024-01-30T03:06:10;5.70;99.90
69533;DHT22;56729;52.036;5.332;2024-01-30T03:07:12;5.70;99.90
69533;DHT22;56729;52.036;5.332;2024-01-30T03:08:14;5.70;99.90
69533;DHT22;56729;52.036;5.332;2024-01-30T03:09:17;5.70;99.90
69533;DHT22;56729;52.036;5.332;2024-01-30T03:10:20;5.70;99.90
69533;DHT22;56729;52.036;5.332;2024-01-30T03:11:22;5.70;99.90
69533;DHT22;56729;52.036;5.332;2024-01-30T03:12:24;5.70;99.90
69533;DHT22;56729;52.036;5.332;2024-01-30T03:13:25;5.70;99.90
69533;DHT22;56729;52.036;5.332;2024-01-30T03:14:29;5.70;99.90
69533;DHT22;56729;52.036;5.332;2024-01-30T03:15:31;5.70;99.90
69533;DHT22;56729;52.036;5.332;2024-01-30T03:16:34;5.70;99.90
69533;DHT22;56729;52.036;5.332;2024-01-30T03:17:36;5.70;99.90
69533;DHT22;56729;52.036;5.332;2024-01-30T03:18:39;5.70;99.90
69533;DHT22;56729;52.036;5.332;2024-01-30T03:19:42;5.80;99.90
69533;DHT22;56729;52.036;5.332;2024-01-30T03:20:44;5.80;99.90
69533;DHT22;56729;52.036;5.332;2024-01-30T03:21:46;5.80;99.90
69533;DHT22;56729;52.036;5.332;2024-01-30T03:22:48;5.80;99.90
69533;DHT22;56729;52.036;5.332;2024-01-30T03:23:50;5.80;99.90
69533;DHT22;56729;52.036;5.332;2024-01-30T03:24:52;5.90;99.90
69533;DHT22;56729;52.036;5.332;2024-01-30T03:25:55;5.90;99.90
69533;DHT22;56729;52.036;5.332;2024-01-30T03:26:56;5.90;99.90
69533;DHT22;56729;52.036;5.332;2024-01-30T03:27:58;5.90;99.90
69533;DHT22;56729;52.036;5.332;2024-01-30T03:29:00;5.90;99.90
69533;DHT22;56729;52.036;5.332;2024-01-30T03:30:03;5.90;99.90
69533;DHT22;56729;52.036;5.332;2024-01-30T03:31:06;6.00;99.90
69533;DHT22;56729;52.036;5.332;2024-01-30T03:32:08;6.00;99.90
69533;DHT22;56729;52.036;5.332;2024-01-30T03:33:10;6.00;99.90
69533;DHT22;56729;52.036;5.332;2024-01-30T03:34:12;6.00;99.90
69533;DHT22;56729;52.036;5.332;2024-01-30T03:35:15;6.00;99.90
69533;DHT22;56729;52.036;5.332;2024-01-30T03:36:17;6.10;99.90
69533;DHT22;56729;52.036;5.332;2024-01-30T03:37:19;6.10;99.90
69533;DHT22;56729;52.036;5.332;2024-01-30T03:38:21;6.10;99.90
69533;DHT22;56729;52.036;5.332;2024-01-30T03:39:23;6.10;99.90
69533;DHT22;56729;52.036;5.332;2024-01-30T03:40:25;6.10;99.90
69533;DHT22;56729;52.036;5.332;2024-01-30T03:41:27;6.10;99.90
69533;DHT22;56729;52.036;5.332;2024-01-30T03:42:29;6.10;99.90
69533;DHT22;56729;52.036;5.332;2024-01-30T03:43:31;6.10;99.90
69533;DHT22;56729;52.036;5.332;2024-01-30T03:44:33;6.10;99.90
69533;DHT22;56729;52.036;5.332;2024-01-30T03:45:35;6.10;99.90
69533;DHT22;56729;52.036;5.332;2024-01-30T03:46:37;6.10;99.90
69533;DHT22;56729;52.036;5.332;2024-01-30T03:47:39;6.10;99.90
69533;DHT22;56729;52.036;5.332;2024-01-30T03:48:41;6.20;99.90
69533;DHT22;56729;52.036;5.332;2024-01-30T03:49:44;6.20;99.90
69533;DHT22;56729;52.036;5.332;2024-01-30T03:50:46;6.20;99.90
69533;DHT22;56729;52.036;5.332;2024-01-30T03:51:48;6.20;99.90
69533;DHT22;56729;52.036;5.332;2024-01-30T03:52:50;6.20;99.90
69533;DHT22;56729;52.036;5.332;2024-01-30T03:53:51;6.20;99.90
69533;DHT22;56729;52.036;5.332;2024-01-30T03:54:54;6.20;99.90
69533;DHT22;56729;52.036;5.332;2024-01-30T03:55:56;6.30;99.90
69533;DHT22;56729;52.036;5.332;2024-01-30T03:56:58;6.30;99.90
69533;DHT22;56729;52.036;5.332;2024-01-30T03:58:00;6.30;99.90
69533;DHT22;56729;52.036;5.332;2024-01-30T03:59:02;6.30;99.90
69533;DHT22;56729;52.036;5.332;2024-01-30T04:00:05;6.30;99.90
69533;DHT22;56729;52.036;5.332;2024-01-30T04:01:15;6.30;99.90
69533;DHT22;56729;52.036;5.332;2024-01-30T04:02:17;6.30;99.90
69533;DHT22;56729;52.036;5.332;2024-01-30T04:03:22;6.30;99.90
69533;DHT22;56729;52.036;5.332;2024-01-30T04:04:24;6.40;99.90
69533;DHT22;56729;52.036;5.332;2024-01-30T04:05:26;6.40;99.90
69533;DHT22;56729;52.036;5.332;2024-01-30T04:06:28;6.40;99.90
69533;DHT22;56729;52.036;5.332;2024-01-30T04:07:30;6.40;99.90
69533;DHT22;56729;52.036;5.332;2024-01-30T04:08:32;6.40;99.90
69533;DHT22;56729;52.036;5.332;2024-01-30T04:09:34;6.40;99.90
69533;DHT22;56729;52.036;5.332;2024-01-30T04:10:36;6.40;99.90
69533;DHT22;56729;52.036;5.332;2024-01-30T04:11:38;6.40;99.90
69533;DHT22;56729;52.036;5.332;2024-01-30T04:12:40;6.50;99.90
69533;DHT22;56729;52.036;5.332;2024-01-30T04:13:42;6.50;99.90
69533;DHT22;56729;52.036;5.332;2024-01-30T04:14:45;6.50;99.90
69533;DHT22;56729;52.036;5.332;2024-01-30T04:15:47;6.50;99.90
69533;DHT22;56729;52.036;5.332;2024-01-30T04:16:49;6.50;99.90
69533;DHT22;56729;52.036;5.332;2024-01-30T04:17:51;6.50;99.90
69533;DHT22;56729;52.036;5.332;2024-01-30T04:18:53;6.50;99.90
69533;DHT22;56729;52.036;5.332;2024-01-30T04:19:55;6.60;99.90
69533;DHT22;56729;52.036;5.332;2024-01-30T04:20:57;6.60;99.90
69533;DHT22;56729;52.036;5.332;2024-01-30T04:21:59;6.60;99.90
69533;DHT22;56729;52.036;5.332;2024-01-30T04:23:01;6.60;99.90
69533;DHT22;56729;52.036;5.332;2024-01-30T04:24:03;6.60;99.90
69533;DHT22;56729;52.036;5.332;2024-01-30T04:25:06;6.60;99.90
69533;DHT22;56729;52.036;5.332;2024-01-30T04:26:08;6.60;99.90
69533;DHT22;56729;52.036;5.332;2024-01-30T04:27:10;6.60;99.90
69533;DHT22;56729;52.036;5.332;2024-01-30T04:28:12;6.60;99.90
69533;DHT22;56729;52.036;5.332;2024-01-30T04:29:14;6.60;99.90
69533;DHT22;56729;52.036;5.332;2024-01-30T04:30:16;6.60;99.90
69533;DHT22;56729;52.036;5.332;2024-01-30T04:31:18;6.60;99.90
69533;DHT22;56729;52.036;5.332;2024-01-30T04:32:20;6.70;99.90
69533;DHT22;56729;52.036;5.332;2024-01-30T04:33:22;6.70;99.90
69533;DHT22;56729;52.036;5.332;2024-01-30T04:34:24;6.70;99.90
69533;DHT22;56729;52.036;5.332;2024-01-30T04:35:26;6.70;99.90
69533;DHT22;56729;52.036;5.332;2024-01-30T04:36:28;6.70;99.90
69533;DHT22;56729;52.036;5.332;2024-01-30T04:37:32;6.70;99.90
69533;DHT22;56729;52.036;5.332;2024-01-30T04:38:33;6.70;99.90
69533;DHT22;56729;52.036;5.332;2024-01-30T04:39:36;6.70;99.90
69533;DHT22;56729;52.036;5.332;2024-01-30T04:40:39;6.70;99.90
69533;DHT22;56729;52.036;5.332;2024-01-30T04:41:41;6.70;99.90
69533;DHT22;56729;52.036;5.332;2024-01-30T04:42:43;6.70;99.90
69533;DHT22;56729;52.036;5.332;2024-01-30T04:43:45;6.70;99.90
69533;DHT22;56729;52.036;5.332;2024-01-30T04:44:47;6.70;99.90
69533;DHT22;56729;52.036;5.332;2024-01-30T04:45:49;6.70;99.90
69533;DHT22;56729;52.036;5.332;2024-01-30T04:46:51;6.70;99.90
69533;DHT22;56729;52.036;5.332;2024-01-30T04:47:53;6.70;99.90
69533;DHT22;56729;52.036;5.332;2024-01-30T04:48:55;6.70;99.90
69533;DHT22;56729;52.036;5.332;2024-01-30T04:49:58;6.70;99.90
69533;DHT22;56729;52.036;5.332;2024-01-30T04:51:00;6.70;99.90
69533;DHT22;56729;52.036;5.332;2024-01-30T04:52:05;6.80;99.90
69533;DHT22;56729;52.036;5.332;2024-01-30T04:53:07;6.80;99.90
69533;DHT22;56729;52.036;5.332;2024-01-30T04:54:09;6.80;99.90
69533;DHT22;56729;52.036;5.332;2024-01-30T04:55:11;6.80;99.90
69533;DHT22;56729;52.036;5.332;2024-01-30T04:56:13;6.80;99.90
69533;DHT22;56729;52.036;5.332;2024-01-30T04:57:15;6.80;99.90
69533;DHT22;56729;52.036;5.332;2024-01-30T04:58:17;6.80;99.90
69533;DHT22;56729;52.036;5.332;2024-01-30T04:59:19;6.80;99.90
69533;DHT22;56729;52.036;5.332;2024-01-30T05:00:21;6.80;99.90
69533;DHT22;56729;52.036;5.332;2024-01-30T05:01:23;6.80;99.90
69533;DHT22;56729;52.036;5.332;2024-01-30T05:02:25;6.80;99.90
69533;DHT22;56729;52.036;5.332;2024-01-30T05:03:27;6.80;99.90
69533;DHT22;56729;52.036;5.332;2024-01-30T05:04:29;6.80;99.90
69533;DHT22;56729;52.036;5.332;2024-01-30T05:05:31;6.80;99.90
69533;DHT22;56729;52.036;5.332;2024-01-30T05:06:33;6.80;99.90
69533;DHT22;56729;52.036;5.332;2024-01-30T05:07:36;6.80;99.90
69533;DHT22;56729;52.036;5.332;2024-01-30T05:08:38;6.90;99.90
69533;DHT22;56729;52.036;5.332;2024-01-30T05:09:40;6.80;99.90
69533;DHT22;56729;52.036;5.332;2024-01-30T05:10:42;6.90;99.90
69533;DHT22;56729;52.036;5.332;2024-01-30T05:11:44;6.90;99.90
69533;DHT22;56729;52.036;5.332;2024-01-30T05:12:46;6.90;99.90
69533;DHT22;56729;52.036;5.332;2024-01-30T05:13:48;6.90;99.90
69533;DHT22;56729;52.036;5.332;2024-01-30T05:14:50;6.90;99.90
69533;DHT22;56729;52.036;5.332;2024-01-30T05:15:52;6.90;99.90
69533;DHT22;56729;52.036;5.332;2024-01-30T05:16:54;6.90;99.90
69533;DHT22;56729;52.036;5.332;2024-01-30T05:17:56;6.90;99.90
69533;DHT22;56729;52.036;5.332;2024-01-30T05:18:59;6.90;99.90
69533;DHT22;56729;52.036;5.332;2024-01-30T05:20:04;6.90;99.90
69533;DHT22;56729;52.036;5.332;2024-01-30T05:21:06;6.90;99.90
69533;DHT22;56729;52.036;5.332;2024-01-30T05:22:08;6.90;99.90
69533;DHT22;56729;52.036;5.332;2024-01-30T05:23:11;6.90;99.90
69533;DHT22;56729;52.036;5.332;2024-01-30T05:24:13;6.90;99.90
69533;DHT22;56729;52.036;5.332;2024-01-30T05:25:15;7.00;99.90
69533;DHT22;56729;52.036;5.332;2024-01-30T05:26:17;6.90;99.90
69533;DHT22;56729;52.036;5.332;2024-01-30T05:27:19;7.00;99.90
69533;DHT22;56729;52.036;5.332;2024-01-30T05:28:21;7.00;99.90
69533;DHT22;56729;52.036;5.332;2024-01-30T05:29:24;7.00;99.90
69533;DHT22;56729;52.036;5.332;2024-01-30T05:30:26;7.00;99.90
69533;DHT22;56729;52.036;5.332;2024-01-30T05:31:28;7.00;99.90
69533;DHT22;56729;52.036;5.332;2024-01-30T05:32:30;7.00;99.90
69533;DHT22;56729;52.036;5.332;2024-01-30T05:33:32;7.00;99.90
69533;DHT22;56729;52.036;5.332;2024-01-30T05:34:35;7.00;99.90
69533;DHT22;56729;52.036;5.332;2024-01-30T05:35:37;7.00;99.90
69533;DHT22;56729;52.036;5.332;2024-01-30T05:36:39;7.00;99.90
69533;DHT22;56729;52.036;5.332;2024-01-30T05:37:42;7.00;99.90
69533;DHT22;56729;52.036;5.332;2024-01-30T05:38:44;7.00;99.90
69533;DHT22;56729;52.036;5.332;2024-01-30T05:39:46;7.10;99.90
69533;DHT22;56729;52.036;5.332;2024-01-30T05:40:48;7.10;99.90
69533;DHT22;56729;52.036;5.332;2024-01-30T05:41:50;7.10;99.90
69533;DHT22;56729;52.036;5.332;2024-01-30T05:42:52;7.10;99.90
69533;DHT22;56729;52.036;5.332;2024-01-30T05:43:54;7.10;99.90
69533;DHT22;56729;52.036;5.332;2024-01-30T05:44:56;7.10;99.90
69533;DHT22;56729;52.036;5.332;2024-01-30T05:45:59;7.10;99.90
69533;DHT22;56729;52.036;5.332;2024-01-30T05:47:01;7.10;99.90
69533;DHT22;56729;52.036;5.332;2024-01-30T05:48:04;7.10;99.90
69533;DHT22;56729;52.036;5.332;2024-01-30T05:49:06;7.10;99.90
69533;DHT22;56729;52.036;5.332;2024-01-30T05:50:09;7.10;99.90
69533;DHT22;56729;52.036;5.332;2024-01-30T05:51:11;7.10;99.90
69533;DHT22;56729;52.036;5.332;2024-01-30T05:52:13;7.20;99.90
69533;DHT22;56729;52.036;5.332;2024-01-30T05:53:17;7.20;99.90
69533;DHT22;56729;52.036;5.332;2024-01-30T05:54:19;7.20;99.90
69533;DHT22;56729;52.036;5.332;2024-01-30T05:55:20;7.20;99.90
69533;DHT22;56729;52.036;5.332;2024-01-30T05:56:23;7.20;99.90
69533;DHT22;56729;52.036;5.332;2024-01-30T05:57:25;7.20;99.90
69533;DHT22;56729;52.036;5.332;2024-01-30T05:58:27;7.20;99.90
69533;DHT22;56729;52.036;5.332;2024-01-30T05:59:29;7.20;99.90
69533;DHT22;56729;52.036;5.332;2024-01-30T06:00:31;7.20;99.90
69533;DHT22;56729;52.036;5.332;2024-01-30T06:01:33;7.20;99.90
69533;DHT22;56729;52.036;5.332;2024-01-30T06:02:36;7.20;99.90
69533;DHT22;56729;52.036;5.332;2024-01-30T06:03:38;7.20;99.90
69533;DHT22;56729;52.036;5.332;2024-01-30T06:04:40;7.20;99.90
69533;DHT22;56729;52.036;5.332;2024-01-30T06:05:42;7.20;99.90
69533;DHT22;56729;52.036;5.332;2024-01-30T06:06:44;7.20;99.90
69533;DHT22;56729;52.036;5.332;2024-01-30T06:07:46;7.20;99.90
69533;DHT22;56729;52.036;5.332;2024-01-30T06:08:49;7.20;99.90
69533;DHT22;56729;52.036;5.332;2024-01-30T06:09:51;7.30;99.90
69533;DHT22;56729;52.036;5.332;2024-01-30T06:10:53;7.30;99.90
69533;DHT22;56729;52.036;5.332;2024-01-30T06:11:55;7.30;99.90
69533;DHT22;56729;52.036;5.332;2024-01-30T06:12:57;7.30;99.90
69533;DHT22;56729;52.036;5.332;2024-01-30T06:13:59;7.30;99.90
69533;DHT22;56729;52.036;5.332;2024-01-30T06:15:01;7.30;99.90
69533;DHT22;56729;52.036;5.332;2024-01-30T06:16:04;7.30;99.90
69533;DHT22;56729;52.036;5.332;2024-01-30T06:17:06;7.30;99.90
69533;DHT22;56729;52.036;5.332;2024-01-30T06:18:08;7.30;99.90
69533;DHT22;56729;52.036;5.332;2024-01-30T06:19:11;7.30;99.90
69533;DHT22;56729;52.036;5.332;2024-01-30T06:20:13;7.30;99.90
69533;DHT22;56729;52.036;5.332;2024-01-30T06:21:16;7.30;99.90
69533;DHT22;56729;52.036;5.332;2024-01-30T06:22:18;7.30;99.90
69533;DHT22;56729;52.036;5.332;2024-01-30T06:23:20;7.30;99.90
69533;DHT22;56729;52.036;5.332;2024-01-30T06:24:22;7.30;99.90
69533;DHT22;56729;52.036;5.332;2024-01-30T06:25:24;7.30;99.90
69533;DHT22;56729;52.036;5.332;2024-01-30T06:26:27;7.30;99.90
69533;DHT22;56729;52.036;5.332;2024-01-30T06:27:29;7.30;99.90
69533;DHT22;56729;52.036;5.332;2024-01-30T06:28:31;7.30;99.90
69533;DHT22;56729;52.036;5.332;2024-01-30T06:29:33;7.40;99.90
69533;DHT22;56729;52.036;5.332;2024-01-30T06:30:35;7.40;99.90
69533;DHT22;56729;52.036;5.332;2024-01-30T06:31:41;7.40;99.90
69533;DHT22;56729;52.036;5.332;2024-01-30T06:32:43;7.30;99.90
69533;DHT22;56729;52.036;5.332;2024-01-30T06:33:49;7.40;99.90
69533;DHT22;56729;52.036;5.332;2024-01-30T06:34:51;7.30;99.90
69533;DHT22;56729;52.036;5.332;2024-01-30T06:35:53;7.40;99.90
69533;DHT22;56729;52.036;5.332;2024-01-30T06:36:55;7.40;99.90
69533;DHT22;56729;52.036;5.332;2024-01-30T06:37:57;7.40;99.90
69533;DHT22;56729;52.036;5.332;2024-01-30T06:39:00;7.40;99.90
69533;DHT22;56729;52.036;5.332;2024-01-30T06:40:02;7.40;99.90